Time;durP1;ratioP1;P1;durP2;ratioP2;P2;SDS_P1;SDS_P2;PMS_P1;PMS_P2;Temp;Humidity;BMP_temperature;BMP_pressure;BME280_temperature;BME280_humidity;BME280_pressure;Samples;Min_cycle;Max_cycle;Signal;HPM_P1;HPM_P2
2021/01/05 00:01:42;;;;;;;9.95;6.63;;;9.60;99.90;;;;;;4996159;28;20140;-59
2021/01/05 00:04:10;;;;;;;9.45;7.05;;;9.60;99.90;;;;;;5012858;28;20038;-59
2021/01/05 00:06:39;;;;;;;9.20;6.55;;;9.60;99.90;;;;;;4995827;28;20050;-59
2021/01/05 00:09:06;;;;;;;9.25;5.70;;;9.60;99.90;;;;;;4994908;28;20050;-60
2021/01/05 00:11:34;;;;;;;9.23;6.35;;;9.60;99.90;;;;;;5013211;28;20049;-60
2021/01/05 00:14:01;;;;;;;9.77;6.50;;;9.60;99.90;;;;;;4998182;28;20073;-59
2021/01/05 00:16:33;;;;;;;7.95;5.75;;;9.60;99.90;;;;;;5008160;28;20096;-60
2021/01/05 00:19:00;;;;;;;9.07;5.72;;;9.60;99.90;;;;;;5016102;28;20052;-59
2021/01/05 00:21:28;;;;;;;8.10;5.93;;;9.50;99.90;;;;;;4999011;28;20129;-59
2021/01/05 00:23:57;;;;;;;9.98;6.05;;;9.50;99.90;;;;;;5015927;28;20561;-59
2021/01/05 00:26:25;;;;;;;7.18;5.38;;;9.50;99.90;;;;;;4998802;28;20058;-59
2021/01/05 00:28:52;;;;;;;9.63;6.13;;;9.50;99.90;;;;;;5016441;28;20049;-59
2021/01/05 00:31:19;;;;;;;7.68;5.05;;;9.50;99.90;;;;;;5016365;28;20046;-59
2021/01/05 00:33:46;;;;;;;8.88;5.22;;;9.50;99.90;;;;;;4998649;28;20052;-59
2021/01/05 00:36:14;;;;;;;6.78;5.45;;;9.50;99.90;;;;;;5021904;28;20525;-59
2021/01/05 00:38:41;;;;;;;9.30;5.28;;;9.50;99.90;;;;;;5034648;28;20052;-59
2021/01/05 00:41:08;;;;;;;8.23;5.82;;;9.50;99.90;;;;;;5034818;28;20049;-59
2021/01/05 00:43:36;;;;;;;10.50;5.53;;;9.50;99.90;;;;;;5034401;28;20143;-59
2021/01/05 00:46:04;;;;;;;6.95;4.82;;;9.50;99.90;;;;;;5034799;28;20384;-59
2021/01/05 00:48:31;;;;;;;6.75;5.20;;;9.50;99.90;;;;;;5035443;28;20128;-59
2021/01/05 00:50:59;;;;;;;10.00;5.43;;;9.40;99.90;;;;;;5031466;28;20183;-60
2021/01/05 00:53:26;;;;;;;7.55;4.32;;;9.40;99.90;;;;;;5035338;28;20080;-59
2021/01/05 00:55:53;;;;;;;6.28;4.97;;;9.40;99.90;;;;;;5034491;28;20046;-59
2021/01/05 00:58:23;;;;;;;4.90;3.88;;;9.30;99.90;;;;;;5033961;28;20053;-60
2021/01/05 01:00:54;;;;;;;7.13;5.05;;;9.40;99.90;;;;;;5034793;28;20053;-59
2021/01/05 01:03:22;;;;;;;7.40;3.40;;;9.40;99.90;;;;;;5034200;28;20053;-60
2021/01/05 01:05:50;;;;;;;5.70;3.20;;;9.40;99.90;;;;;;5035239;28;20099;-59
2021/01/05 01:08:20;;;;;;;5.50;3.83;;;9.40;99.90;;;;;;5033875;28;20084;-59
2021/01/05 01:10:52;;;;;;;6.72;3.20;;;9.40;99.90;;;;;;5035662;28;20132;-59
2021/01/05 01:13:23;;;;;;;6.13;4.07;;;9.40;99.90;;;;;;5035199;28;20052;-59
2021/01/05 01:15:51;;;;;;;7.15;3.58;;;9.40;99.80;;;;;;5035259;28;20054;-59
2021/01/05 01:18:18;;;;;;;7.55;3.90;;;9.40;99.90;;;;;;5034511;28;20506;-60
2021/01/05 01:20:46;;;;;;;5.65;2.90;;;9.40;99.80;;;;;;5034106;28;20133;-59
2021/01/05 01:23:22;;;;;;;3.63;2.75;;;9.40;99.50;;;;;;5033673;28;20140;-59
2021/01/05 01:25:52;;;;;;;4.47;2.50;;;9.40;99.40;;;;;;5017266;28;20057;-59
2021/01/05 01:28:22;;;;;;;3.28;2.30;;;9.40;99.30;;;;;;5034704;28;20049;-59
2021/01/05 01:30:50;;;;;;;3.97;2.20;;;9.40;99.20;;;;;;5033787;28;20058;-59
2021/01/05 01:33:23;;;;;;;4.60;2.65;;;9.50;99.20;;;;;;5033561;28;20072;-59
2021/01/05 01:35:53;;;;;;;3.95;2.20;;;9.50;99.20;;;;;;5017652;28;20274;-59
2021/01/05 01:38:21;;;;;;;5.38;3.03;;;9.50;99.10;;;;;;5033360;28;20107;-60
2021/01/05 01:40:56;;;;;;;4.95;1.92;;;9.50;99.10;;;;;;5033776;28;20073;-59
2021/01/05 01:43:32;;;;;;;3.00;2.13;;;9.50;99.10;;;;;;5033406;28;20099;-59
2021/01/05 01:46:08;;;;;;;3.42;2.33;;;9.50;99.10;;;;;;5015898;28;20132;-59
2021/01/05 01:48:42;;;;;;;8.40;2.30;;;9.50;99.00;;;;;;5033536;28;20046;-59
2021/01/05 01:51:11;;;;;;;3.40;2.25;;;9.50;98.80;;;;;;5016860;28;20096;-59
2021/01/05 01:54:15;;;;;;;3.22;2.22;;;9.50;98.70;;;;;;5032947;28;20128;-59
2021/01/05 01:56:57;;;;;;;3.80;2.20;;;9.50;98.70;;;;;;5043401;28;20496;-59
2021/01/05 01:59:50;;;;;;;5.93;2.15;;;9.50;98.70;;;;;;5032998;28;20451;-59
2021/01/05 02:03:10;;;;;;;3.83;2.25;;;9.50;98.90;;;;;;5033449;28;20077;-59
2021/01/05 02:06:09;;;;;;;8.30;2.95;;;9.40;98.90;;;;;;5033183;28;20049;-59
2021/01/05 02:09:02;;;;;;;2.95;2.10;;;9.40;98.90;;;;;;5032622;28;20054;-59
2021/01/05 02:11:48;;;;;;;4.35;2.88;;;9.40;99.00;;;;;;5025636;28;20135;-59
2021/01/05 02:15:00;;;;;;;4.88;2.88;;;9.40;99.10;;;;;;5032359;28;20080;-59
2021/01/05 02:17:59;;;;;;;3.90;2.30;;;9.30;99.10;;;;;;5002942;28;20119;-59
2021/01/05 02:20:35;;;;;;;3.85;2.50;;;9.40;99.10;;;;;;5033770;28;20392;-59
2021/01/05 02:23:18;;;;;;;;;;;9.30;99.10;;;;;;5033344;28;20095;-60
2021/01/05 02:26:05;;;;;;;7.55;3.60;;;9.20;98.90;;;;;;5015394;28;19927;-59
2021/01/05 02:28:44;;;;;;;7.30;3.75;;;9.30;98.90;;;;;;5032574;28;20567;-60
2021/01/05 02:31:54;;;;;;;6.43;3.72;;;9.10;98.80;;;;;;5016505;28;20530;-60
2021/01/05 02:34:32;;;;;;;4.72;2.85;;;9.00;99.00;;;;;;5009216;28;20060;-59
2021/01/05 02:37:15;;;;;;;;;;;8.90;99.30;;;;;;5032998;28;20147;-59
2021/01/05 02:40:30;;;;;;;3.90;2.67;;;8.90;99.50;;;;;;5032252;28;19921;-60
2021/01/05 02:43:34;;;;;;;6.05;2.75;;;8.90;99.60;;;;;;5015914;28;20046;-60
2021/01/05 02:46:39;;;;;;;6.57;3.13;;;8.90;99.40;;;;;;5032458;28;20606;-60
2021/01/05 02:49:48;;;;;;;4.20;3.13;;;8.90;99.50;;;;;;4991843;28;20133;-60
2021/01/05 02:53:03;;;;;;;5.18;3.20;;;8.90;99.40;;;;;;5012849;28;20095;-60
2021/01/05 02:56:29;;;;;;;4.78;3.83;;;8.90;99.50;;;;;;5032994;28;20061;-59
2021/01/05 02:59:45;;;;;;;5.97;3.15;;;8.90;99.50;;;;;;5033220;28;20045;-60
2021/01/05 03:02:55;;;;;;;5.63;2.97;;;8.90;99.60;;;;;;5012882;28;20141;-60
2021/01/05 03:05:46;;;;;;;8.35;3.42;;;9.00;99.60;;;;;;5030214;28;20052;-60
2021/01/05 03:08:35;;;;;;;4.05;3.15;;;9.00;99.60;;;;;;5031812;28;20514;-60
2021/01/05 03:11:30;;;;;;;5.50;4.22;;;9.00;99.60;;;;;;5033483;28;20184;-60
2021/01/05 03:14:29;;;;;;;6.32;3.03;;;9.00;99.60;;;;;;5031812;28;20376;-60
2021/01/05 03:17:37;;;;;;;7.03;3.75;;;9.00;99.50;;;;;;5032168;28;20061;-59
2021/01/05 03:20:25;;;;;;;;;;;8.90;99.50;;;;;;5032831;28;20050;-59
2021/01/05 03:23:13;;;;;;;3.70;2.40;;;8.90;99.60;;;;;;5031940;28;19943;-59
2021/01/05 03:26:06;;;;;;;5.18;2.92;;;8.90;99.70;;;;;;5032392;28;20048;-60
2021/01/05 03:28:52;;;;;;;3.92;2.50;;;8.90;99.70;;;;;;5031793;28;20046;-59
2021/01/05 03:31:47;;;;;;;4.82;2.45;;;8.90;99.60;;;;;;5024550;28;20061;-59
2021/01/05 03:34:33;;;;;;;5.68;3.72;;;8.90;99.60;;;;;;5031163;28;20046;-59
2021/01/05 03:37:39;;;;;;;5.68;3.38;;;8.90;99.70;;;;;;4953002;29;20179;-59
2021/01/05 03:40:25;;;;;;;5.00;3.08;;;8.90;99.60;;;;;;4963555;28;20078;-59
2021/01/05 03:43:11;;;;;;;5.10;2.95;;;8.90;99.50;;;;;;4998028;28;20049;-60
2021/01/05 03:45:57;;;;;;;3.83;2.88;;;8.80;99.70;;;;;;5032103;28;20050;-59
2021/01/05 03:48:43;;;;;;;3.17;2.63;;;8.80;99.90;;;;;;5020956;28;20389;-60
2021/01/05 03:51:29;;;;;;;5.50;2.80;;;8.80;99.90;;;;;;5028440;28;20057;-59
2021/01/05 03:54:15;;;;;;;4.38;3.00;;;8.80;99.90;;;;;;5036292;28;20407;-60
2021/01/05 03:57:03;;;;;;;7.03;3.78;;;8.80;99.90;;;;;;5037132;28;20048;-59
2021/01/05 03:59:49;;;;;;;7.03;4.40;;;8.80;99.90;;;;;;5035557;28;20055;-60
2021/01/05 04:02:35;;;;;;;5.28;3.80;;;8.80;99.90;;;;;;5032279;28;20121;-59
2021/01/05 04:05:03;;;;;;;4.75;2.65;;;8.80;99.90;;;;;;5015538;28;20042;-59
2021/01/05 04:07:30;;;;;;;4.97;2.90;;;8.70;99.90;;;;;;5019067;28;20046;-60
2021/01/05 04:09:57;;;;;;;3.40;2.90;;;8.60;99.90;;;;;;5035049;28;20379;-60
2021/01/05 04:12:24;;;;;;;3.80;2.42;;;8.60;99.90;;;;;;5018882;28;20460;-59
2021/01/05 04:14:51;;;;;;;5.53;2.65;;;8.50;99.90;;;;;;5035149;28;20407;-60
2021/01/05 04:17:19;;;;;;;4.50;3.13;;;8.50;99.90;;;;;;5035513;28;20392;-60
2021/01/05 04:19:48;;;;;;;6.63;2.85;;;8.30;99.90;;;;;;5036010;28;20552;-59
2021/01/05 04:22:16;;;;;;;6.15;2.92;;;8.30;99.90;;;;;;5034876;28;20099;-60
2021/01/05 04:24:43;;;;;;;6.20;4.00;;;8.20;99.90;;;;;;5035945;28;20045;-59
2021/01/05 04:27:10;;;;;;;6.13;2.83;;;8.00;99.90;;;;;;5019105;28;20053;-60
2021/01/05 04:29:37;;;;;;;4.53;2.85;;;8.00;99.90;;;;;;5034779;28;20507;-60
2021/01/05 04:32:04;;;;;;;3.95;2.92;;;8.00;99.90;;;;;;5035214;28;20091;-59
2021/01/05 04:34:31;;;;;;;6.25;4.03;;;8.00;99.90;;;;;;5034540;28;20455;-60
2021/01/05 04:36:59;;;;;;;5.07;2.60;;;8.00;99.90;;;;;;5018276;28;20129;-59
2021/01/05 04:39:26;;;;;;;5.07;2.72;;;8.00;99.90;;;;;;5035833;28;20522;-59
2021/01/05 04:42:15;;;;;;;4.68;2.50;;;8.10;99.90;;;;;;5018655;28;20050;-59
2021/01/05 04:45:01;;;;;;;5.63;3.38;;;8.20;99.90;;;;;;5034237;28;20050;-59
2021/01/05 04:47:57;;;;;;;5.57;3.30;;;8.20;99.90;;;;;;5018421;28;20053;-59
2021/01/05 04:50:38;;;;;;;4.95;3.05;;;8.30;99.90;;;;;;5034123;28;20053;-60
2021/01/05 04:53:14;;;;;;;5.35;2.80;;;8.30;99.90;;;;;;5035454;28;20042;-60
2021/01/05 04:55:50;;;;;;;4.10;2.80;;;8.30;99.90;;;;;;5034029;28;20064;-59
2021/01/05 04:58:42;;;;;;;4.45;3.05;;;8.30;99.90;;;;;;5034956;28;20045;-59
2021/01/05 05:01:35;;;;;;;5.05;3.03;;;8.30;99.90;;;;;;5040719;28;20054;-60
2021/01/05 05:04:19;;;;;;;4.65;3.95;;;8.30;99.90;;;;;;5034368;28;20045;-59
2021/01/05 05:07:02;;;;;;;8.63;4.40;;;8.20;99.90;;;;;;5028048;28;20136;-59
2021/01/05 05:09:41;;;;;;;7.72;3.30;;;8.20;99.90;;;;;;5034141;28;20403;-59
2021/01/05 05:12:46;;;;;;;4.38;3.42;;;8.20;99.90;;;;;;5034789;28;20496;-59
2021/01/05 05:15:31;;;;;;;5.85;4.53;;;8.20;99.90;;;;;;5035101;28;20057;-59
2021/01/05 05:18:13;;;;;;;5.28;3.28;;;8.10;99.90;;;;;;5035759;28;20388;-59
2021/01/05 05:20:59;;;;;;;4.55;3.40;;;8.00;99.90;;;;;;5017821;28;20056;-59
2021/01/05 05:23:49;;;;;;;4.72;3.60;;;7.90;99.90;;;;;;5017536;28;20126;-60
2021/01/05 05:26:37;;;;;;;4.82;4.32;;;7.80;99.90;;;;;;5033468;28;20132;-60
2021/01/05 05:29:43;;;;;;;6.50;4.15;;;7.70;99.90;;;;;;5034999;28;20099;-60
2021/01/05 05:32:15;;;;;;;;;;;7.60;99.90;;;;;;5032802;28;20056;-60
2021/01/05 05:35:11;;;;;;;6.47;4.75;;;7.60;99.90;;;;;;5033394;28;19925;-59
2021/01/05 05:38:01;;;;;;;6.93;4.22;;;7.60;99.90;;;;;;4988767;28;20055;-59
2021/01/05 05:40:48;;;;;;;6.82;4.32;;;7.60;99.90;;;;;;5026558;28;20108;-59
2021/01/05 05:43:52;;;;;;;7.05;4.82;;;7.50;99.90;;;;;;5016162;28;20053;-59
2021/01/05 05:46:31;;;;;;;7.28;4.32;;;7.40;99.90;;;;;;5022252;28;20447;-60
2021/01/05 05:49:05;;;;;;;10.32;5.32;;;7.30;99.90;;;;;;4986467;28;20041;-59
2021/01/05 05:51:46;;;;;;;6.68;4.22;;;7.30;99.90;;;;;;5018553;28;20532;-60
2021/01/05 05:54:23;;;;;;;8.63;5.13;;;7.30;99.90;;;;;;5028168;28;20054;-60
2021/01/05 05:57:25;;;;;;;5.90;4.47;;;7.20;99.90;;;;;;5020568;28;20054;-60
2021/01/05 06:00:06;;;;;;;10.70;4.97;;;7.20;99.90;;;;;;5003630;28;20057;-59
2021/01/05 06:02:38;;;;;;;6.07;4.22;;;7.30;99.90;;;;;;4979214;28;20137;-59
2021/01/05 06:05:27;;;;;;;9.82;5.40;;;7.40;99.90;;;;;;5015839;28;20554;-61
2021/01/05 06:07:58;;;;;;;14.65;7.20;;;7.50;99.90;;;;;;4995746;28;20484;-60
2021/01/05 06:10:27;;;;;;;11.68;6.43;;;7.60;99.90;;;;;;5008047;28;20080;-60
2021/01/05 06:12:55;;;;;;;9.85;5.68;;;7.70;99.90;;;;;;4997518;28;20054;-60
2021/01/05 06:15:23;;;;;;;8.48;5.50;;;7.80;99.90;;;;;;5004357;28;20536;-60
2021/01/05 06:17:50;;;;;;;6.00;4.82;;;7.80;99.90;;;;;;5033018;28;20057;-60
2021/01/05 06:20:22;;;;;;;8.50;4.70;;;7.80;99.90;;;;;;4972041;28;20484;-60
2021/01/05 06:22:49;;;;;;;7.90;5.45;;;7.80;99.90;;;;;;5033335;28;20061;-60
2021/01/05 06:25:17;;;;;;;8.07;5.15;;;7.90;99.90;;;;;;5009406;28;20049;-60
2021/01/05 06:27:44;;;;;;;10.82;6.47;;;8.30;99.90;;;;;;4996991;28;20105;-60
2021/01/05 06:30:12;;;;;;;7.82;5.45;;;8.80;99.90;;;;;;4985912;28;20045;-61
2021/01/05 06:32:39;;;;;;;8.95;5.20;;;9.40;99.90;;;;;;5016226;28;20376;-61
2021/01/05 06:35:08;;;;;;;7.05;4.95;;;10.10;99.90;;;;;;4994794;28;20050;-61
2021/01/05 06:37:36;;;;;;;4.50;3.10;;;10.70;99.20;;;;;;4961597;28;20049;-60
2021/01/05 06:40:05;;;;;;;4.13;3.10;;;11.10;98.50;;;;;;5016379;28;20049;-60
2021/01/05 06:42:32;;;;;;;6.63;3.30;;;11.60;97.50;;;;;;5016174;28;20056;-60
2021/01/05 06:45:00;;;;;;;7.05;3.70;;;12.20;96.60;;;;;;5027411;28;20407;-60
2021/01/05 06:47:27;;;;;;;4.47;3.13;;;12.80;95.70;;;;;;4997529;28;20050;-60
2021/01/05 06:49:57;;;;;;;5.35;3.90;;;13.40;94.60;;;;;;5019283;28;20058;-59
2021/01/05 06:52:27;;;;;;;7.22;4.50;;;14.00;93.50;;;;;;5014701;28;20057;-59
2021/01/05 06:54:58;;;;;;;6.90;3.97;;;14.70;92.30;;;;;;5009776;28;20057;-60
2021/01/05 06:57:27;;;;;;;3.97;2.90;;;15.30;91.20;;;;;;4996760;28;20443;-59
2021/01/05 06:59:54;;;;;;;4.75;2.55;;;15.90;90.30;;;;;;5018907;28;20096;-60
2021/01/05 07:02:27;;;;;;;4.15;2.70;;;16.20;89.00;;;;;;5014229;28;20052;-60
2021/01/05 07:04:55;;;;;;;4.50;2.97;;;16.60;86.70;;;;;;5009829;28;20065;-59
2021/01/05 07:07:22;;;;;;;3.67;2.40;;;17.20;84.60;;;;;;4997779;28;20496;-59
2021/01/05 07:09:49;;;;;;;3.85;2.13;;;17.50;83.10;;;;;;5001346;28;20503;-60
2021/01/05 07:12:16;;;;;;;3.28;2.63;;;18.00;80.90;;;;;;4997088;28;20128;-60
2021/01/05 07:14:44;;;;;;;3.70;2.60;;;18.50;78.70;;;;;;4993387;28;20046;-60
2021/01/05 07:17:15;;;;;;;4.10;2.40;;;18.90;76.30;;;;;;4979243;28;20052;-60
2021/01/05 07:19:43;;;;;;;4.43;2.58;;;19.20;74.90;;;;;;4995441;28;20085;-59
2021/01/05 07:22:10;;;;;;;3.13;1.95;;;19.70;73.40;;;;;;4995754;28;20126;-59
2021/01/05 07:24:37;;;;;;;3.17;2.00;;;20.10;72.30;;;;;;5009511;28;20487;-59
2021/01/05 07:27:05;;;;;;;5.28;2.60;;;20.20;70.80;;;;;;4983411;28;20076;-59
2021/01/05 07:29:33;;;;;;;4.18;2.40;;;20.50;70.30;;;;;;4985141;28;20049;-59
2021/01/05 07:32:00;;;;;;;4.25;2.72;;;20.90;69.00;;;;;;5028791;28;20053;-59
2021/01/05 07:34:29;;;;;;;4.05;2.30;;;21.30;67.70;;;;;;4993240;28;20045;-59
2021/01/05 07:37:15;;;;;;;3.60;2.38;;;21.70;66.50;;;;;;5028972;28;20414;-60
2021/01/05 07:39:43;;;;;;;4.10;2.42;;;21.80;66.30;;;;;;5032551;28;20050;-59
2021/01/05 07:42:16;;;;;;;6.93;3.20;;;22.10;65.00;;;;;;5015789;28;20054;-60
2021/01/05 07:44:45;;;;;;;4.50;3.25;;;22.30;64.00;;;;;;5031848;28;20119;-58
2021/01/05 07:47:14;;;;;;;8.70;6.40;;;22.40;63.50;;;;;;5033010;28;20137;-58
2021/01/05 07:49:44;;;;;;;9.15;5.20;;;22.40;63.10;;;;;;5032789;28;20076;-58
2021/01/05 07:52:24;;;;;;;11.73;9.40;;;22.20;62.70;;;;;;5031349;28;20058;-62
2021/01/05 07:54:51;;;;;;;10.57;7.68;;;21.90;63.10;;;;;;5032746;28;20033;-59
2021/01/05 07:57:19;;;;;;;8.75;7.30;;;21.60;63.30;;;;;;5015582;28;20042;-60
2021/01/05 07:59:46;;;;;;;6.82;4.97;;;20.70;64.30;;;;;;5031397;28;20053;-59
2021/01/05 08:02:14;;;;;;;7.57;4.85;;;19.70;66.20;;;;;;5032932;28;20061;-60
2021/01/05 08:04:44;;;;;;;8.13;5.45;;;18.90;68.60;;;;;;5014873;28;20171;-60
2021/01/05 08:07:13;;;;;;;7.95;4.97;;;18.60;70.60;;;;;;5031936;28;20045;-58
2021/01/05 08:09:42;;;;;;;10.18;3.90;;;17.60;72.50;;;;;;5031471;28;20087;-58
2021/01/05 08:12:13;;;;;;;5.15;3.47;;;17.20;75.10;;;;;;5031708;28;20100;-59
2021/01/05 08:14:44;;;;;;;8.98;4.30;;;17.30;76.40;;;;;;5031067;28;20056;-59
2021/01/05 08:17:15;;;;;;;4.55;3.08;;;17.40;76.20;;;;;;5032829;28;20064;-59
2021/01/05 08:19:44;;;;;;;5.88;3.10;;;17.60;77.00;;;;;;5032578;28;20078;-59
2021/01/05 08:22:14;;;;;;;6.68;4.38;;;17.20;77.30;;;;;;5015455;28;20081;-60
2021/01/05 08:24:42;;;;;;;4.85;3.30;;;16.60;79.70;;;;;;5031209;28;20395;-59
2021/01/05 08:27:12;;;;;;;6.32;3.83;;;16.60;81.60;;;;;;5015253;28;20081;-60
2021/01/05 08:29:43;;;;;;;10.30;5.35;;;16.60;82.90;;;;;;5032172;28;20049;-59
2021/01/05 08:32:13;;;;;;;10.90;3.28;;;16.60;83.60;;;;;;5031650;28;20050;-60
2021/01/05 08:34:43;;;;;;;5.60;3.97;;;16.50;84.20;;;;;;5033928;28;20042;-60
2021/01/05 08:37:15;;;;;;;7.53;4.22;;;15.90;86.90;;;;;;5034904;28;20057;-60
2021/01/05 08:39:44;;;;;;;6.95;4.15;;;15.80;88.00;;;;;;5034776;28;20529;-61
2021/01/05 08:42:12;;;;;;;6.70;3.53;;;15.40;90.20;;;;;;5034631;28;20046;-60
2021/01/05 08:44:39;;;;;;;6.68;3.78;;;15.10;91.00;;;;;;5034269;28;20516;-60
2021/01/05 08:47:07;;;;;;;5.43;3.10;;;15.20;91.30;;;;;;5035125;28;20057;-61
2021/01/05 08:49:34;;;;;;;4.75;3.05;;;15.10;91.90;;;;;;5034134;28;20049;-59
2021/01/05 08:52:05;;;;;;;4.30;2.80;;;15.00;92.30;;;;;;5034624;28;20448;-59
2021/01/05 08:54:33;;;;;;;4.03;3.00;;;14.80;92.90;;;;;;5033438;28;20041;-59
2021/01/05 08:57:00;;;;;;;7.82;3.20;;;14.70;92.80;;;;;;5036219;28;20060;-60
2021/01/05 08:59:30;;;;;;;8.20;4.38;;;14.60;93.10;;;;;;5034548;28;20049;-59
2021/01/05 09:01:57;;;;;;;6.05;3.60;;;14.60;93.50;;;;;;5034790;28;20076;-59
2021/01/05 09:04:28;;;;;;;5.38;3.75;;;14.40;93.60;;;;;;5033623;28;20064;-59
2021/01/05 09:06:59;;;;;;;7.72;4.03;;;14.40;93.30;;;;;;5034193;28;20068;-59
2021/01/05 09:09:27;;;;;;;8.93;5.40;;;14.40;93.70;;;;;;5033581;28;20518;-59
2021/01/05 09:11:57;;;;;;;6.72;3.58;;;14.50;93.40;;;;;;5017584;28;20046;-59
2021/01/05 09:14:25;;;;;;;7.10;3.80;;;14.40;93.20;;;;;;5034703;28;20060;-59
2021/01/05 09:17:01;;;;;;;5.90;4.88;;;14.40;93.30;;;;;;5035368;28;20063;-59
2021/01/05 09:19:29;;;;;;;5.13;3.47;;;14.60;93.70;;;;;;5034711;28;20503;-59
2021/01/05 09:21:57;;;;;;;4.32;2.60;;;14.80;93.30;;;;;;5033708;28;20049;-60
2021/01/05 09:24:24;;;;;;;5.28;2.95;;;14.80;92.60;;;;;;5033090;28;20155;-58
2021/01/05 09:26:54;;;;;;;5.18;2.80;;;14.60;92.20;;;;;;5033835;28;20115;-58
2021/01/05 09:29:23;;;;;;;6.10;2.90;;;14.70;92.60;;;;;;5033403;28;20119;-58
2021/01/05 09:31:54;;;;;;;5.15;3.25;;;14.80;92.20;;;;;;5033730;28;20072;-58
2021/01/05 09:34:25;;;;;;;4.78;2.63;;;14.80;92.70;;;;;;5034103;28;20136;-58
2021/01/05 09:36:52;;;;;;;7.30;3.92;;;14.70;92.10;;;;;;5020272;28;20054;-58
2021/01/05 09:39:23;;;;;;;6.43;3.95;;;14.80;92.50;;;;;;5003135;28;20460;-58
2021/01/05 09:42:03;;;;;;;5.18;2.92;;;15.00;92.30;;;;;;5011831;28;20054;-58
2021/01/05 09:44:31;;;;;;;4.20;2.30;;;15.00;91.90;;;;;;5010232;28;20053;-58
2021/01/05 09:47:01;;;;;;;4.70;2.22;;;14.90;91.80;;;;;;4985739;28;20417;-58
2021/01/05 09:49:30;;;;;;;5.50;3.13;;;14.90;92.20;;;;;;5019732;28;20114;-59
2021/01/05 09:52:01;;;;;;;4.55;2.65;;;15.10;92.30;;;;;;5029692;28;20076;-58
2021/01/05 09:54:30;;;;;;;4.20;2.45;;;15.00;92.60;;;;;;4994285;28;20207;-58
2021/01/05 09:56:58;;;;;;;3.53;2.10;;;15.00;92.10;;;;;;5002311;28;20053;-59
2021/01/05 09:59:27;;;;;;;3.97;2.03;;;14.90;92.30;;;;;;5002471;28;20549;-59
2021/01/05 10:02:05;;;;;;;3.50;1.95;;;14.70;92.40;;;;;;5011314;28;20053;-58
2021/01/05 10:04:32;;;;;;;2.75;1.75;;;14.50;92.20;;;;;;4994339;28;20103;-59
2021/01/05 10:07:00;;;;;;;3.42;1.40;;;14.60;92.00;;;;;;5018858;28;20120;-60
2021/01/05 10:09:28;;;;;;;2.08;1.60;;;14.70;91.00;;;;;;4986559;28;20567;-58
2021/01/05 10:11:56;;;;;;;7.20;4.47;;;14.90;91.70;;;;;;5011655;28;20060;-59
2021/01/05 10:14:23;;;;;;;3.75;1.38;;;15.10;90.70;;;;;;5009895;28;20060;-58
2021/01/05 10:16:58;;;;;;;1.40;0.93;;;15.10;89.50;;;;;;5002502;28;20081;-59
2021/01/05 10:19:26;;;;;;;1.75;1.20;;;15.20;88.90;;;;;;5019362;28;20061;-58
2021/01/05 10:21:54;;;;;;;2.13;1.40;;;15.10;88.40;;;;;;5028497;28;20059;-59
2021/01/05 10:24:21;;;;;;;1.38;1.23;;;14.90;87.60;;;;;;5009578;28;20400;-59
2021/01/05 10:26:51;;;;;;;2.05;1.65;;;14.50;90.10;;;;;;5003012;28;20060;-59
2021/01/05 10:29:18;;;;;;;3.03;1.48;;;14.40;90.90;;;;;;5001492;28;20045;-59
2021/01/05 10:31:46;;;;;;;3.30;2.42;;;14.50;90.30;;;;;;5010177;28;20066;-59
2021/01/05 10:34:22;;;;;;;5.88;2.28;;;14.60;90.10;;;;;;5027560;28;20041;-59
2021/01/05 10:36:53;;;;;;;4.82;2.30;;;14.70;90.10;;;;;;5025141;28;20111;-59
2021/01/05 10:39:21;;;;;;;3.55;1.52;;;15.00;89.40;;;;;;5015489;28;20132;-59
2021/01/05 10:41:49;;;;;;;3.33;1.20;;;15.00;89.30;;;;;;5015759;28;20056;-59
2021/01/05 10:44:21;;;;;;;4.18;1.70;;;15.00;87.50;;;;;;5031721;28;20506;-59
2021/01/05 10:46:49;;;;;;;3.03;1.50;;;15.10;86.80;;;;;;5032471;28;20046;-59
2021/01/05 10:49:19;;;;;;;2.22;1.25;;;15.30;86.50;;;;;;5031987;28;20068;-59
2021/01/05 10:51:48;;;;;;;4.43;1.60;;;15.20;84.00;;;;;;5015632;28;20049;-58
2021/01/05 10:54:19;;;;;;;1.83;1.05;;;15.20;82.50;;;;;;5031437;28;20403;-59
2021/01/05 10:56:58;;;;;;;1.60;1.30;;;15.20;83.10;;;;;;5033162;28;20084;-59
2021/01/05 10:59:27;;;;;;;2.30;1.48;;;15.30;83.50;;;;;;5032742;28;20061;-59
2021/01/05 11:01:57;;;;;;;5.28;2.47;;;15.30;84.10;;;;;;5032122;28;20073;-59
2021/01/05 11:04:24;;;;;;;4.55;3.10;;;15.30;84.60;;;;;;5031290;28;20078;-59
2021/01/05 11:06:55;;;;;;;3.65;2.17;;;15.30;84.60;;;;;;5031697;28;20077;-59
2021/01/05 11:09:24;;;;;;;3.78;2.50;;;14.90;84.70;;;;;;5031611;28;20137;-59
2021/01/05 11:12:02;;;;;;;4.95;3.08;;;14.70;87.80;;;;;;5015278;28;20048;-59
2021/01/05 11:14:31;;;;;;;3.58;1.90;;;14.90;89.00;;;;;;5032603;28;20076;-59
2021/01/05 11:16:58;;;;;;;2.53;1.60;;;14.90;89.50;;;;;;5033000;28;20081;-59
2021/01/05 11:19:26;;;;;;;2.78;1.42;;;15.00;90.20;;;;;;5031264;28;20137;-59
2021/01/05 11:21:55;;;;;;;2.40;1.50;;;15.00;90.30;;;;;;5031525;28;20057;-59
2021/01/05 11:24:26;;;;;;;4.05;1.70;;;14.60;90.80;;;;;;5032157;28;20071;-59
2021/01/05 11:26:55;;;;;;;3.88;2.17;;;14.50;91.50;;;;;;5031651;28;20060;-59
2021/01/05 11:29:24;;;;;;;2.88;1.70;;;14.60;91.80;;;;;;5014895;28;20060;-58
2021/01/05 11:32:02;;;;;;;2.58;1.65;;;14.90;91.40;;;;;;5031956;28;20055;-59
2021/01/05 11:34:34;;;;;;;3.72;2.28;;;15.20;90.60;;;;;;5030805;28;20041;-58
2021/01/05 11:37:04;;;;;;;3.35;1.92;;;15.40;90.40;;;;;;5031416;28;20061;-59
2021/01/05 11:39:31;;;;;;;4.10;1.98;;;15.30;90.20;;;;;;5031159;28;20053;-59
2021/01/05 11:42:00;;;;;;;4.40;2.50;;;15.20;90.70;;;;;;5031839;28;20080;-59
2021/01/05 11:44:28;;;;;;;4.35;1.98;;;15.00;91.00;;;;;;5030752;28;20050;-59
2021/01/05 11:46:56;;;;;;;16.20;9.10;;;14.80;90.50;;;;;;5032786;28;20131;-59
2021/01/05 11:49:24;;;;;;;7.18;4.10;;;14.80;90.00;;;;;;5031064;28;20041;-59
2021/01/05 11:51:55;;;;;;;7.68;3.53;;;14.90;88.60;;;;;;5031629;28;20081;-58
2021/01/05 11:54:23;;;;;;;9.68;5.63;;;15.00;89.40;;;;;;5030711;28;20050;-59
2021/01/05 11:56:58;;;;;;;10.30;5.22;;;15.00;90.10;;;;;;5032690;28;20045;-59
2021/01/05 11:59:26;;;;;;;5.47;3.75;;;15.00;90.00;;;;;;5032227;28;20085;-59
2021/01/05 12:01:54;;;;;;;3.95;2.58;;;15.20;88.90;;;;;;5032011;28;20048;-59
2021/01/05 12:04:22;;;;;;;7.20;3.42;;;15.10;88.20;;;;;;5029635;28;20076;-59
2021/01/05 12:06:54;;;;;;;5.47;3.72;;;15.20;90.00;;;;;;5030494;28;20384;-59
2021/01/05 12:09:24;;;;;;;4.82;2.30;;;15.30;89.90;;;;;;5033771;28;20475;-59
2021/01/05 12:12:10;;;;;;;3.67;2.58;;;15.10;88.90;;;;;;5034307;28;20049;-59
2021/01/05 12:14:40;;;;;;;4.07;2.00;;;15.10;89.50;;;;;;5033778;28;20052;-59
2021/01/05 12:17:07;;;;;;;4.78;3.05;;;15.00;88.50;;;;;;5035540;28;20067;-59
2021/01/05 12:19:43;;;;;;;4.72;3.08;;;14.80;90.00;;;;;;5033685;28;20132;-59
2021/01/05 12:22:11;;;;;;;5.30;3.60;;;14.60;90.50;;;;;;5035312;28;20049;-59
2021/01/05 12:24:44;;;;;;;9.88;3.08;;;14.60;90.60;;;;;;5033914;28;20057;-59
2021/01/05 12:27:13;;;;;;;6.10;3.10;;;14.50;90.90;;;;;;5034321;28;20049;-59
2021/01/05 12:29:47;;;;;;;5.60;3.35;;;14.40;90.80;;;;;;5017018;28;20052;-59
2021/01/05 12:32:16;;;;;;;3.58;2.45;;;14.30;91.20;;;;;;5017450;28;20220;-59
2021/01/05 12:34:47;;;;;;;3.42;2.10;;;14.20;91.50;;;;;;5034571;28;20041;-59
2021/01/05 12:37:18;;;;;;;3.45;2.38;;;14.20;91.70;;;;;;5033461;28;20115;-59
2021/01/05 12:39:45;;;;;;;6.97;2.33;;;14.30;91.90;;;;;;5034667;28;20045;-59
2021/01/05 12:42:20;;;;;;;2.53;1.33;;;14.40;91.70;;;;;;5034794;28;20052;-59
2021/01/05 12:44:49;;;;;;;4.38;1.50;;;14.30;91.30;;;;;;5033234;28;20399;-59
2021/01/05 12:47:17;;;;;;;2.65;1.63;;;14.10;91.40;;;;;;5035177;28;20399;-59
2021/01/05 12:49:45;;;;;;;3.30;1.67;;;14.10;91.90;;;;;;5034258;28;20045;-59
2021/01/05 12:52:12;;;;;;;2.60;2.05;;;14.20;92.20;;;;;;5016987;28;20037;-59
2021/01/05 12:54:41;;;;;;;4.82;2.85;;;14.30;92.30;;;;;;5034105;28;20081;-59
2021/01/05 12:57:12;;;;;;;5.40;3.72;;;14.30;93.00;;;;;;5017205;28;20056;-59
2021/01/05 12:59:41;;;;;;;2.78;1.95;;;14.20;92.50;;;;;;5033195;28;20133;-59
2021/01/05 13:02:25;;;;;;;2.78;2.05;;;14.20;92.80;;;;;;5034489;28;20069;-57
2021/01/05 13:04:53;;;;;;;3.67;2.38;;;14.30;92.70;;;;;;5033139;28;20068;-58
2021/01/05 13:07:23;;;;;;;2.60;2.05;;;14.20;91.80;;;;;;5033475;28;20053;-58
2021/01/05 13:09:56;;;;;;;3.67;1.77;;;14.10;91.60;;;;;;5033254;28;20042;-57
2021/01/05 13:12:25;;;;;;;4.82;1.98;;;14.10;91.40;;;;;;5016727;28;20041;-58
2021/01/05 13:14:53;;;;;;;2.30;1.67;;;14.20;91.60;;;;;;5032633;28;20115;-59
2021/01/05 13:17:21;;;;;;;5.00;1.75;;;14.20;91.30;;;;;;5033191;28;20091;-59
2021/01/05 13:19:50;;;;;;;3.40;1.60;;;14.20;90.90;;;;;;5031727;28;20080;-58
2021/01/05 13:22:18;;;;;;;2.67;1.27;;;14.20;90.00;;;;;;5017076;28;20133;-59
2021/01/05 13:24:45;;;;;;;3.72;1.50;;;14.10;90.70;;;;;;5032542;28;20077;-58
2021/01/05 13:27:12;;;;;;;2.63;1.52;;;14.20;90.30;;;;;;5034195;28;20080;-59
2021/01/05 13:29:40;;;;;;;3.38;2.05;;;14.20;90.50;;;;;;5032299;28;20060;-59
2021/01/05 13:32:16;;;;;;;2.83;1.60;;;14.30;90.50;;;;;;5033062;28;20128;-57